Time;durP1;ratioP1;P1;durP2;ratioP2;P2;SDS_P1;SDS_P2;PMS_P1;PMS_P2;Temp;Humidity;BMP_temperature;BMP_pressure;BME280_temperature;BME280_humidity;BME280_pressure;Samples;Min_cycle;Max_cycle;Signal;HPM_P1;HPM_P2
2021/01/28 00:01:04;;;;;;;6.97;3.97;;;4.20;99.90;;;;;;5048800;28;21440;-57
2021/01/28 00:03:30;;;;;;;7.47;4.23;;;3.40;99.90;;;;;;5042349;28;20381;-57
2021/01/28 00:05:55;;;;;;;9.98;4.72;;;3.40;99.90;;;;;;5053737;28;20455;-58
2021/01/28 00:08:21;;;;;;;7.10;3.90;;;6.20;99.90;;;;;;5046231;28;20896;-57
2021/01/28 00:10:47;;;;;;;5.70;3.70;;;5.10;99.90;;;;;;5025365;28;20484;-57
2021/01/28 00:13:13;;;;;;;7.17;4.00;;;3.60;99.90;;;;;;5033679;28;20445;-58
2021/01/28 00:15:39;;;;;;;8.02;4.00;;;5.90;99.90;;;;;;5039711;28;20898;-57
2021/01/28 00:18:07;;;;;;;6.78;3.97;;;4.30;99.90;;;;;;5047700;28;20974;-57
2021/01/28 00:20:45;;;;;;;8.00;3.97;;;3.60;99.90;;;;;;5041550;28;20389;-58
2021/01/28 00:23:11;;;;;;;6.78;3.60;;;6.40;99.90;;;;;;5050615;28;20461;-57
2021/01/28 00:25:37;;;;;;;7.00;4.30;;;3.50;99.90;;;;;;5039179;28;20892;-57
2021/01/28 00:28:04;;;;;;;7.97;3.70;;;3.60;99.90;;;;;;5053281;28;20454;-57
2021/01/28 00:30:37;;;;;;;6.90;4.22;;;3.60;99.90;;;;;;5045504;28;20403;-57
2021/01/28 00:33:04;;;;;;;6.50;4.20;;;3.70;99.90;;;;;;5044624;28;20386;-57
2021/01/28 00:35:41;;;;;;;6.77;3.80;;;3.70;99.90;;;;;;5042344;28;20476;-57
2021/01/28 00:38:10;;;;;;;5.72;3.45;;;3.80;99.90;;;;;;5049187;28;20373;-57
2021/01/28 00:40:36;;;;;;;6.88;4.47;;;3.90;99.90;;;;;;5044716;28;20414;-58
2021/01/28 00:43:02;;;;;;;6.90;4.60;;;3.80;99.90;;;;;;5044553;28;20390;-57
2021/01/28 00:45:30;;;;;;;7.18;4.47;;;3.60;99.90;;;;;;5038297;28;20422;-59
2021/01/28 00:47:56;;;;;;;6.57;3.90;;;3.50;99.90;;;;;;5046966;28;20418;-57
2021/01/28 00:50:26;;;;;;;6.97;4.05;;;3.90;99.90;;;;;;5015027;28;20384;-57
2021/01/28 00:52:51;;;;;;;7.17;4.57;;;3.70;99.90;;;;;;5036733;28;20494;-57
2021/01/28 00:55:18;;;;;;;8.63;4.63;;;3.70;99.90;;;;;;5044276;28;20532;-57
2021/01/28 00:57:45;;;;;;;8.88;4.40;;;3.70;99.90;;;;;;5047171;28;20403;-57
2021/01/28 01:00:20;;;;;;;8.68;4.75;;;6.70;99.90;;;;;;5042195;28;20392;-58
2021/01/28 01:02:46;;;;;;;8.35;4.60;;;3.60;99.90;;;;;;5052178;28;20465;-57
2021/01/28 01:05:15;;;;;;;9.05;4.70;;;3.70;99.90;;;;;;5042161;28;20912;-57
2021/01/28 01:07:40;;;;;;;8.30;4.50;;;3.60;99.90;;;;;;5045298;28;20413;-57
2021/01/28 01:10:09;;;;;;;9.40;4.68;;;3.60;99.90;;;;;;5038603;28;20783;-57
2021/01/28 01:12:35;;;;;;;8.27;4.68;;;3.70;99.90;;;;;;5050879;28;20382;-57
2021/01/28 01:15:01;;;;;;;7.88;4.25;;;3.70;99.90;;;;;;5045672;28;20416;-58
2021/01/28 01:17:26;;;;;;;9.70;4.80;;;3.70;99.90;;;;;;5042917;28;20378;-60
2021/01/28 01:19:52;;;;;;;7.97;4.43;;;5.70;99.90;;;;;;5049167;28;20397;-58
2021/01/28 01:22:18;;;;;;;7.80;4.55;;;4.90;99.90;;;;;;5039598;28;20486;-56
2021/01/28 01:24:43;;;;;;;7.73;4.50;;;3.80;99.90;;;;;;5042941;28;20863;-57
2021/01/28 01:27:09;;;;;;;7.43;4.10;;;6.20;99.90;;;;;;5044995;28;20420;-56
2021/01/28 01:29:34;;;;;;;7.22;3.80;;;3.90;99.90;;;;;;5050238;28;20386;-59
2021/01/28 01:32:00;;;;;;;8.53;4.20;;;4.50;99.90;;;;;;5038407;28;20406;-57
2021/01/28 01:34:26;;;;;;;8.48;3.90;;;4.00;99.90;;;;;;5050403;28;20368;-59
2021/01/28 01:36:52;;;;;;;7.00;3.87;;;3.90;99.90;;;;;;5041092;28;20401;-56
2021/01/28 01:39:17;;;;;;;7.80;3.60;;;3.90;99.90;;;;;;5045265;28;20746;-57
2021/01/28 01:41:43;;;;;;;6.20;3.30;;;3.90;99.90;;;;;;5039541;28;20461;-57
2021/01/28 01:44:09;;;;;;;6.40;3.27;;;5.20;99.90;;;;;;5046977;28;20389;-59
2021/01/28 01:46:35;;;;;;;8.93;3.77;;;4.00;99.90;;;;;;5039115;28;20770;-57
2021/01/28 01:49:07;;;;;;;7.50;3.22;;;4.00;99.90;;;;;;5051787;28;20382;-57
2021/01/28 01:51:37;;;;;;;7.32;3.47;;;4.10;99.90;;;;;;5047025;28;20483;-57
2021/01/28 01:54:27;;;;;;;6.40;2.95;;;4.20;99.90;;;;;;5043395;28;20492;-57
2021/01/28 01:57:00;;;;;;;5.77;2.90;;;4.10;99.90;;;;;;5043837;28;20397;-57
2021/01/28 01:59:36;;;;;;;6.35;2.75;;;4.00;99.90;;;;;;5044390;28;20381;-59
2021/01/28 02:02:09;;;;;;;6.50;2.90;;;4.10;99.90;;;;;;5037627;28;20406;-57
2021/01/28 02:04:35;;;;;;;5.25;2.80;;;4.10;99.90;;;;;;5035682;28;20420;-57
2021/01/28 02:07:17;;;;;;;6.97;3.20;;;4.20;99.90;;;;;;5042675;28;20418;-57
2021/01/28 02:09:43;;;;;;;5.32;3.00;;;4.20;99.90;;;;;;5043600;28;20429;-57
2021/01/28 02:12:09;;;;;;;6.28;2.63;;;4.20;99.90;;;;;;5040357;28;20433;-58
2021/01/28 02:14:35;;;;;;;7.63;3.05;;;4.20;99.90;;;;;;5036206;28;20399;-57
2021/01/28 02:17:08;;;;;;;7.00;2.70;;;5.40;99.90;;;;;;5033507;28;20471;-57
2021/01/28 02:19:46;;;;;;;6.65;3.08;;;4.30;99.90;;;;;;5045009;28;20407;-58
2021/01/28 02:22:12;;;;;;;6.80;3.47;;;4.30;99.90;;;;;;5041614;28;20384;-58
2021/01/28 02:24:44;;;;;;;6.10;3.08;;;4.40;99.90;;;;;;5040581;28;20391;-57
2021/01/28 02:27:10;;;;;;;5.78;2.80;;;6.10;99.90;;;;;;5041180;28;20432;-57
2021/01/28 02:29:36;;;;;;;6.70;2.83;;;4.30;99.90;;;;;;5039376;28;20385;-57
2021/01/28 02:32:03;;;;;;;5.23;2.57;;;4.20;99.90;;;;;;5051281;28;20378;-56
2021/01/28 02:34:31;;;;;;;6.20;2.85;;;4.20;99.90;;;;;;5044581;28;20450;-60
2021/01/28 02:36:56;;;;;;;5.57;2.70;;;4.30;99.90;;;;;;5041484;28;20646;-57
2021/01/28 02:39:25;;;;;;;5.45;2.83;;;4.30;99.90;;;;;;5045950;28;20399;-57
2021/01/28 02:42:08;;;;;;;4.83;2.40;;;6.60;99.90;;;;;;5039874;28;20380;-57
2021/01/28 02:44:34;;;;;;;5.80;2.55;;;5.70;99.90;;;;;;5040188;28;20430;-57
2021/01/28 02:46:59;;;;;;;6.03;2.70;;;4.20;99.90;;;;;;5044586;28;21076;-57
2021/01/28 02:49:25;;;;;;;5.93;2.58;;;4.60;99.90;;;;;;5040982;28;20434;-57
2021/01/28 02:51:51;;;;;;;5.20;2.50;;;4.20;99.90;;;;;;5044381;28;20373;-57
2021/01/28 02:54:16;;;;;;;4.47;2.15;;;6.50;99.90;;;;;;5049820;28;20362;-58
2021/01/28 02:56:42;;;;;;;4.75;2.40;;;4.20;99.90;;;;;;5035760;28;20903;-57
2021/01/28 02:59:08;;;;;;;5.37;2.30;;;5.50;99.90;;;;;;5042109;28;20404;-57
2021/01/28 03:01:36;;;;;;;5.30;2.30;;;4.10;99.90;;;;;;5040993;28;20440;-57
2021/01/28 03:04:01;;;;;;;5.45;2.30;;;4.10;99.90;;;;;;5043317;28;20861;-57
2021/01/28 03:06:27;;;;;;;6.18;2.53;;;4.10;99.90;;;;;;5041491;28;20382;-59
2021/01/28 03:08:53;;;;;;;5.90;2.50;;;4.10;99.90;;;;;;5047647;28;20797;-57
2021/01/28 03:11:19;;;;;;;6.70;2.20;;;6.60;99.90;;;;;;5036378;28;20477;-57
2021/01/28 03:13:45;;;;;;;4.47;1.98;;;4.00;99.90;;;;;;5031776;28;20708;-57
2021/01/28 03:16:10;;;;;;;5.60;2.40;;;5.10;99.90;;;;;;5044502;28;20399;-57
2021/01/28 03:18:36;;;;;;;4.97;2.15;;;3.90;99.90;;;;;;5038636;28;20387;-57
2021/01/28 03:21:02;;;;;;;5.30;2.10;;;4.00;99.90;;;;;;5035280;28;20394;-57
2021/01/28 03:23:28;;;;;;;4.78;2.20;;;4.00;99.90;;;;;;5042086;28;20416;-60
2021/01/28 03:25:53;;;;;;;4.65;2.20;;;2.50;99.90;;;;;;5050649;28;20373;-57
2021/01/28 03:28:19;;;;;;;5.37;2.00;;;4.00;99.90;;;;;;5039274;28;20426;-57
2021/01/28 03:30:47;;;;;;;5.85;2.20;;;5.80;99.90;;;;;;5043567;28;20385;-57
2021/01/28 03:33:16;;;;;;;4.60;2.00;;;4.00;99.90;;;;;;5036176;28;20407;-58
2021/01/28 03:35:42;;;;;;;4.70;2.03;;;4.50;99.90;;;;;;5043427;28;20399;-57
2021/01/28 03:38:09;;;;;;;4.10;1.70;;;4.30;99.90;;;;;;5038568;28;20731;-57
2021/01/28 03:40:36;;;;;;;4.32;1.80;;;4.50;99.90;;;;;;5041971;28;20415;-57
2021/01/28 03:43:01;;;;;;;5.53;2.15;;;4.00;99.90;;;;;;5041294;28;20380;-57
2021/01/28 03:45:27;;;;;;;5.00;2.30;;;4.00;99.90;;;;;;5036165;28;20406;-57
2021/01/28 03:47:54;;;;;;;4.40;2.00;;;4.00;99.90;;;;;;5047158;28;20410;-57
2021/01/28 03:50:24;;;;;;;4.80;2.55;;;4.00;99.90;;;;;;5038321;28;20429;-58
2021/01/28 03:52:50;;;;;;;4.68;2.33;;;4.00;99.90;;;;;;5038722;28;20390;-57
2021/01/28 03:55:15;;;;;;;6.80;2.70;;;4.00;99.90;;;;;;5039433;28;20469;-57
2021/01/28 03:57:41;;;;;;;5.95;2.70;;;3.90;99.90;;;;;;5038278;28;20413;-57
2021/01/28 04:00:09;;;;;;;5.90;2.70;;;4.80;99.90;;;;;;5036852;28;20379;-57
2021/01/28 04:02:35;;;;;;;6.97;3.15;;;4.00;99.90;;;;;;5029601;28;20413;-57
2021/01/28 04:05:01;;;;;;;6.68;3.30;;;4.70;99.90;;;;;;5035583;28;20403;-57
2021/01/28 04:07:27;;;;;;;6.97;3.40;;;3.90;99.90;;;;;;5042156;28;20413;-57
2021/01/28 04:09:53;;;;;;;6.00;2.85;;;4.10;99.90;;;;;;5039688;28;20439;-57
2021/01/28 04:12:18;;;;;;;6.20;2.90;;;4.20;99.90;;;;;;5035344;28;20749;-57
2021/01/28 04:14:44;;;;;;;5.37;2.57;;;6.70;99.90;;;;;;5040971;28;20393;-57
2021/01/28 04:17:10;;;;;;;5.40;2.33;;;6.90;99.90;;;;;;5040062;28;20474;-57
2021/01/28 04:19:35;;;;;;;4.95;2.30;;;4.70;99.90;;;;;;5034774;28;20395;-57
2021/01/28 04:22:01;;;;;;;5.23;2.37;;;5.50;99.90;;;;;;5043951;28;20938;-57
2021/01/28 04:24:26;;;;;;;3.60;1.70;;;3.80;99.90;;;;;;5042268;28;20809;-57
2021/01/28 04:26:52;;;;;;;4.67;1.90;;;4.60;99.90;;;;;;5039578;28;20475;-58
2021/01/28 04:29:18;;;;;;;3.63;1.70;;;6.30;99.90;;;;;;5039611;28;20754;-58
2021/01/28 04:31:43;;;;;;;5.30;1.70;;;4.00;99.90;;;;;;5042488;28;20382;-57
2021/01/28 04:34:09;;;;;;;4.20;1.80;;;4.10;99.90;;;;;;5036021;28;20784;-57
2021/01/28 04:36:35;;;;;;;4.50;1.60;;;4.50;99.90;;;;;;5046452;28;20388;-57
2021/01/28 04:39:03;;;;;;;5.30;2.10;;;6.20;99.90;;;;;;5044641;28;20395;-58
2021/01/28 04:41:32;;;;;;;3.85;1.63;;;4.30;99.90;;;;;;5040474;28;20476;-61
2021/01/28 04:43:59;;;;;;;5.30;2.10;;;4.40;99.90;;;;;;5052828;28;20380;-57
2021/01/28 04:46:32;;;;;;;4.55;1.90;;;4.50;99.90;;;;;;5041421;28;20395;-57
2021/01/28 04:48:59;;;;;;;4.68;2.00;;;4.60;99.90;;;;;;5044172;28;20419;-57
2021/01/28 04:51:27;;;;;;;5.00;2.00;;;4.70;99.90;;;;;;5051504;28;20791;-57
2021/01/28 04:53:57;;;;;;;4.60;1.90;;;4.60;99.90;;;;;;5048189;28;20499;-57
2021/01/28 04:56:25;;;;;;;5.03;1.93;;;6.70;99.90;;;;;;5052265;28;20389;-57
2021/01/28 04:59:03;;;;;;;10.00;2.25;;;4.60;99.90;;;;;;5051185;28;20377;-57
2021/01/28 05:01:30;;;;;;;6.05;2.20;;;4.60;99.90;;;;;;5039875;28;20490;-60
2021/01/28 05:03:57;;;;;;;4.55;2.30;;;4.80;99.90;;;;;;5053038;28;20381;-57
2021/01/28 05:06:24;;;;;;;5.40;2.25;;;4.80;99.90;;;;;;5046454;28;20482;-57
2021/01/28 05:08:49;;;;;;;4.90;2.60;;;4.80;99.90;;;;;;5041504;28;20953;-57
2021/01/28 05:11:22;;;;;;;6.28;2.53;;;5.30;99.90;;;;;;5044515;28;20432;-56
2021/01/28 05:13:48;;;;;;;5.57;2.70;;;5.60;99.90;;;;;;5038806;28;20407;-56
2021/01/28 05:16:25;;;;;;;5.60;2.53;;;6.20;99.90;;;;;;5043615;28;20676;-57
2021/01/28 05:19:00;;;;;;;6.55;2.70;;;4.80;99.90;;;;;;5051628;28;20385;-57
2021/01/28 05:21:29;;;;;;;7.37;3.20;;;4.90;99.90;;;;;;5039900;28;20825;-57
2021/01/28 05:24:05;;;;;;;7.03;3.15;;;4.90;99.90;;;;;;5043709;28;20387;-57
2021/01/28 05:26:41;;;;;;;9.18;3.97;;;4.90;99.90;;;;;;5043129;28;20851;-59
2021/01/28 05:29:29;;;;;;;7.43;3.88;;;4.80;99.90;;;;;;5052422;28;20377;-58
2021/01/28 05:31:59;;;;;;;8.40;4.13;;;4.80;99.90;;;;;;5051463;28;20394;-59
2021/01/28 05:34:31;;;;;;;9.63;4.82;;;5.00;99.90;;;;;;5051916;28;20389;-58
2021/01/28 05:37:03;;;;;;;9.27;4.70;;;4.50;99.90;;;;;;5044958;28;20883;-57
2021/01/28 05:39:30;;;;;;;9.68;4.40;;;4.50;99.90;;;;;;5040945;28;20488;-57
2021/01/28 05:42:14;;;;;;;8.88;4.60;;;4.50;99.90;;;;;;5051564;28;20476;-58
2021/01/28 05:44:41;;;;;;;9.27;4.90;;;4.50;99.90;;;;;;5051654;28;20378;-58
2021/01/28 05:47:18;;;;;;;11.25;5.20;;;4.50;99.90;;;;;;5044771;28;20409;-58
2021/01/28 05:49:44;;;;;;;9.23;4.95;;;4.50;99.90;;;;;;5050132;28;20760;-58
2021/01/28 05:52:29;;;;;;;11.25;5.20;;;4.50;99.90;;;;;;5051159;28;20389;-57
2021/01/28 05:55:15;;;;;;;10.45;5.03;;;4.40;99.90;;;;;;5050010;28;20641;-57
2021/01/28 05:57:53;;;;;;;12.23;5.43;;;4.50;99.90;;;;;;5048058;28;20759;-58
2021/01/28 06:00:35;;;;;;;12.85;4.90;;;4.50;99.90;;;;;;5051186;28;20386;-57
2021/01/28 06:03:35;;;;;;;10.98;5.03;;;4.50;99.90;;;;;;5051552;28;20461;-57
2021/01/28 06:06:09;;;;;;;11.63;5.22;;;4.60;99.90;;;;;;5046368;28;20456;-57
2021/01/28 06:08:44;;;;;;;11.07;4.77;;;4.60;99.90;;;;;;5042043;28;20423;-60
2021/01/28 06:11:37;;;;;;;10.52;4.95;;;4.70;99.90;;;;;;5046567;28;20486;-58
2021/01/28 06:14:41;;;;;;;11.95;5.10;;;4.70;99.90;;;;;;5048620;28;20401;-57
2021/01/28 06:17:51;;;;;;;14.75;5.57;;;4.80;99.90;;;;;;5049083;28;20405;-56
2021/01/28 06:20:28;;;;;;;15.77;5.40;;;4.80;99.90;;;;;;5043025;28;20455;-57
2021/01/28 06:23:38;;;;;;;10.70;5.23;;;4.70;99.90;;;;;;5049094;28;21041;-57
2021/01/28 06:26:20;;;;;;;11.65;4.70;;;4.60;99.90;;;;;;5048215;28;20438;-57
2021/01/28 06:29:11;;;;;;;10.35;5.13;;;4.50;99.90;;;;;;5049125;28;20917;-57
2021/01/28 06:32:14;;;;;;;12.32;5.50;;;4.50;99.90;;;;;;5042749;28;20382;-57
2021/01/28 06:35:03;;;;;;;14.05;5.60;;;4.60;99.90;;;;;;5048514;28;20382;-56
2021/01/28 06:37:56;;;;;;;11.88;5.22;;;4.50;99.90;;;;;;5044400;28;20480;-57
2021/01/28 06:40:28;;;;;;;15.15;5.60;;;4.50;99.90;;;;;;5049026;28;20424;-57
2021/01/28 06:43:09;;;;;;;12.40;5.30;;;4.70;99.90;;;;;;5049181;28;20532;-57
2021/01/28 06:45:40;;;;;;;17.92;6.38;;;4.50;99.90;;;;;;5044923;28;20378;-61
2021/01/28 06:48:43;;;;;;;20.30;6.45;;;4.70;99.90;;;;;;5049123;28;20786;-58
2021/01/28 06:51:31;;;;;;;19.57;6.67;;;4.80;99.90;;;;;;4949310;29;20955;-56
2021/01/28 06:54:06;;;;;;;17.80;5.90;;;4.80;99.90;;;;;;5039800;28;20722;-58
2021/01/28 06:56:54;;;;;;;21.40;6.50;;;4.80;99.90;;;;;;5036921;28;20492;-57
2021/01/28 06:59:51;;;;;;;14.50;6.57;;;4.70;99.90;;;;;;5049035;28;20456;-56
2021/01/28 07:02:36;;;;;;;11.43;5.38;;;4.50;99.90;;;;;;5048913;28;20431;-57
2021/01/28 07:05:39;;;;;;;13.90;6.37;;;4.50;99.90;;;;;;4980663;28;20389;-56
2021/01/28 07:08:31;;;;;;;12.60;5.63;;;4.50;99.90;;;;;;5041941;28;20416;-56
2021/01/28 07:10:57;;;;;;;13.00;5.50;;;4.40;99.90;;;;;;5011016;28;20483;-58
2021/01/28 07:13:32;;;;;;;17.30;6.00;;;4.30;99.90;;;;;;5046573;28;20393;-56
2021/01/28 07:16:02;;;;;;;13.32;5.80;;;4.40;99.90;;;;;;5043922;28;20401;-57
2021/01/28 07:18:40;;;;;;;13.23;6.03;;;4.40;99.90;;;;;;5047922;28;20416;-58
2021/01/28 07:21:11;;;;;;;12.05;5.75;;;4.30;99.90;;;;;;5048255;28;20444;-57
2021/01/28 07:23:39;;;;;;;13.18;5.40;;;4.30;99.90;;;;;;5045445;28;20412;-61
2021/01/28 07:26:12;;;;;;;11.73;4.90;;;4.30;99.90;;;;;;5041995;28;20400;-56
2021/01/28 07:28:38;;;;;;;14.80;5.30;;;5.80;99.90;;;;;;5040080;28;20805;-59
2021/01/28 07:31:04;;;;;;;10.18;5.10;;;4.40;99.90;;;;;;5040366;28;20488;-57
2021/01/28 07:33:29;;;;;;;11.00;4.95;;;4.40;99.90;;;;;;5045055;28;20492;-59
2021/01/28 07:35:56;;;;;;;9.77;4.80;;;6.60;99.90;;;;;;5042880;28;20416;-58
2021/01/28 07:38:28;;;;;;;9.82;4.95;;;7.30;99.90;;;;;;5040183;28;20404;-58
2021/01/28 07:41:02;;;;;;;10.52;4.90;;;4.50;99.90;;;;;;5043486;28;20401;-57
2021/01/28 07:43:32;;;;;;;9.38;4.50;;;4.60;99.90;;;;;;5038924;28;20409;-59
2021/01/28 07:46:23;;;;;;;8.98;4.72;;;4.50;99.90;;;;;;5044902;28;20480;-57
2021/01/28 07:49:09;;;;;;;10.50;4.63;;;4.60;99.90;;;;;;5040903;28;20930;-57
2021/01/28 07:51:41;;;;;;;10.50;4.65;;;5.20;99.90;;;;;;5024484;28;20909;-63
2021/01/28 07:54:27;;;;;;;10.98;4.57;;;4.60;99.90;;;;;;5015412;28;20437;-58
2021/01/28 07:56:57;;;;;;;10.90;5.30;;;4.70;99.90;;;;;;5026014;28;20419;-57
2021/01/28 07:59:22;;;;;;;12.50;5.05;;;4.80;99.90;;;;;;5041594;28;20451;-59
2021/01/28 08:01:52;;;;;;;9.70;5.10;;;4.70;99.90;;;;;;5037089;28;20497;-58
2021/01/28 08:04:32;;;;;;;17.40;5.27;;;4.80;99.90;;;;;;5046653;28;20747;-59
2021/01/28 08:06:59;;;;;;;12.52;4.30;;;4.80;99.90;;;;;;5032370;28;20429;-60
2021/01/28 08:09:25;;;;;;;9.60;4.45;;;4.90;99.90;;;;;;5046082;28;20893;-58
2021/01/28 08:11:54;;;;;;;11.35;3.83;;;4.90;99.90;;;;;;5043324;28;20401;-59
2021/01/28 08:14:23;;;;;;;6.60;3.80;;;5.00;99.90;;;;;;5041931;28;20424;-58
2021/01/28 08:16:51;;;;;;;6.63;3.20;;;5.10;99.90;;;;;;5047040;28;20380;-62
2021/01/28 08:19:27;;;;;;;7.55;3.30;;;5.10;99.90;;;;;;5047337;28;20393;-58
2021/01/28 08:22:09;;;;;;;7.80;3.20;;;5.20;99.90;;;;;;5044733;28;20447;-59
2021/01/28 08:24:35;;;;;;;7.75;3.50;;;5.20;99.90;;;;;;5046754;28;20382;-62
2021/01/28 08:27:26;;;;;;;7.25;3.17;;;5.20;99.90;;;;;;5049966;28;20428;-58
2021/01/28 08:30:01;;;;;;;6.38;3.13;;;5.20;99.90;;;;;;5039698;28;20922;-58
2021/01/28 08:32:30;;;;;;;8.57;3.50;;;5.30;99.90;;;;;;5048546;28;20953;-58
2021/01/28 08:35:03;;;;;;;6.60;3.40;;;5.30;99.90;;;;;;5047959;28;21094;-57
2021/01/28 08:37:31;;;;;;;8.30;3.45;;;5.30;99.90;;;;;;5039861;28;20476;-58
2021/01/28 08:39:57;;;;;;;11.48;3.80;;;5.40;99.90;;;;;;5047649;28;20405;-57
2021/01/28 08:42:25;;;;;;;8.43;3.17;;;5.40;99.90;;;;;;5045186;28;20870;-60
2021/01/28 08:45:13;;;;;;;8.23;3.70;;;5.50;99.90;;;;;;5047028;28;20518;-58
2021/01/28 08:47:39;;;;;;;10.55;4.25;;;5.50;99.90;;;;;;5043925;28;20502;-59
2021/01/28 08:50:20;;;;;;;13.02;3.58;;;5.60;99.90;;;;;;5049022;28;20385;-59
2021/01/28 08:52:47;;;;;;;8.65;3.50;;;5.60;99.90;;;;;;5044609;28;20436;-59
2021/01/28 08:55:22;;;;;;;9.10;3.63;;;5.70;99.90;;;;;;5030458;28;20389;-59
2021/01/28 08:57:49;;;;;;;8.10;3.50;;;5.80;99.90;;;;;;5025312;28;20411;-60
2021/01/28 09:00:21;;;;;;;7.43;3.28;;;5.70;99.90;;;;;;5046207;28;20588;-58
2021/01/28 09:02:51;;;;;;;8.70;2.88;;;5.70;99.90;;;;;;5029849;28;20417;-58
2021/01/28 09:05:25;;;;;;;6.75;2.88;;;5.70;99.90;;;;;;5029369;28;20420;-57
2021/01/28 09:07:53;;;;;;;6.68;2.53;;;5.70;99.90;;;;;;5037461;28;20807;-59
2021/01/28 09:10:38;;;;;;;7.22;2.88;;;5.80;99.90;;;;;;5047304;28;20435;-59
2021/01/28 09:13:30;;;;;;;7.82;2.75;;;6.00;99.90;;;;;;5043901;28;20479;-59
2021/01/28 09:16:14;;;;;;;7.35;2.30;;;5.90;99.90;;;;;;5044594;28;20489;-59
2021/01/28 09:18:45;;;;;;;7.80;2.50;;;6.10;99.90;;;;;;5043461;28;20416;-60
2021/01/28 09:21:15;;;;;;;6.00;2.72;;;6.10;99.90;;;;;;5031791;28;20401;-59
2021/01/28 09:24:04;;;;;;;7.70;2.20;;;6.10;99.90;;;;;;5044145;28;20396;-58
2021/01/28 09:26:35;;;;;;;5.25;2.50;;;6.10;99.90;;;;;;5032056;28;20410;-58
2021/01/28 09:29:38;;;;;;;5.37;2.00;;;6.10;99.90;;;;;;5027596;28;20939;-59
2021/01/28 09:32:27;;;;;;;7.00;2.10;;;6.00;99.90;;;;;;5027782;28;20839;-59
2021/01/28 09:35:17;;;;;;;6.60;1.63;;;6.00;99.90;;;;;;5046499;28;20802;-59
2021/01/28 09:37:45;;;;;;;3.97;1.60;;;6.00;99.90;;;;;;5036813;28;20470;-59
2021/01/28 09:40:29;;;;;;;5.75;1.70;;;6.00;99.90;;;;;;5042910;28;20405;-59
2021/01/28 09:43:26;;;;;;;5.57;1.67;;;5.80;99.90;;;;;;5048135;28;20452;-59
2021/01/28 09:46:06;;;;;;;7.20;4.07;;;5.90;99.90;;;;;;5042155;28;20412;-59
2021/01/28 09:48:32;;;;;;;7.30;5.00;;;5.90;99.90;;;;;;5043009;28;20417;-58
2021/01/28 09:50:58;;;;;;;6.90;3.47;;;5.80;99.90;;;;;;5046195;28;20381;-60
2021/01/28 09:53:23;;;;;;;9.02;5.50;;;5.80;99.90;;;;;;5045935;28;20472;-57
2021/01/28 09:55:51;;;;;;;9.77;5.95;;;5.80;99.90;;;;;;5049174;28;20855;-58
2021/01/28 09:58:21;;;;;;;12.83;7.07;;;5.80;99.90;;;;;;5043053;28;20539;-58
2021/01/28 10:00:46;;;;;;;8.65;4.90;;;5.90;99.90;;;;;;5049542;28;20491;-58
2021/01/28 10:03:14;;;;;;;6.72;3.70;;;5.90;99.90;;;;;;5047704;28;20424;-60
2021/01/28 10:05:40;;;;;;;5.45;1.95;;;5.90;99.90;;;;;;5037736;28;20389;-59
2021/01/28 10:08:06;;;;;;;7.00;2.67;;;5.90;99.90;;;;;;5040373;28;20746;-61
2021/01/28 10:10:34;;;;;;;6.68;3.28;;;6.00;99.90;;;;;;5043545;28;20401;-60
2021/01/28 10:13:03;;;;;;;8.20;5.18;;;6.00;99.90;;;;;;5042856;28;20394;-59
2021/01/28 10:15:29;;;;;;;8.10;4.47;;;6.10;99.90;;;;;;5045922;28;20435;-59
2021/01/28 10:17:56;;;;;;;9.95;8.38;;;6.20;99.90;;;;;;5045291;28;20401;-59
2021/01/28 10:20:22;;;;;;;12.55;8.10;;;6.20;99.90;;;;;;5042591;28;20416;-58
2021/01/28 10:22:49;;;;;;;13.18;8.63;;;6.10;99.90;;;;;;5042965;28;20397;-60
2021/01/28 10:25:17;;;;;;;7.97;5.18;;;6.10;99.90;;;;;;5029179;28;21237;-61
2021/01/28 10:27:42;;;;;;;6.07;2.38;;;6.10;99.90;;;;;;5041973;28;20418;-59
2021/01/28 10:30:10;;;;;;;6.00;3.30;;;6.10;99.90;;;;;;5045356;28;20397;-59
2021/01/28 10:32:36;;;;;;;6.23;3.30;;;6.00;99.90;;;;;;5040013;28;20483;-62
2021/01/28 10:35:04;;;;;;;10.57;4.73;;;6.00;99.90;;;;;;5038273;28;20862;-61
2021/01/28 10:37:29;;;;;;;6.00;2.67;;;6.10;99.90;;;;;;5036306;28;20397;-60
2021/01/28 10:39:55;;;;;;;4.17;2.10;;;6.00;99.90;;;;;;5028084;28;20890;-58
2021/01/28 10:42:25;;;;;;;5.80;2.60;;;6.00;99.90;;;;;;5043285;28;20419;-60
2021/01/28 10:44:51;;;;;;;5.50;2.65;;;6.10;99.90;;;;;;5044677;28;20398;-59
2021/01/28 10:47:17;;;;;;;6.57;4.30;;;6.30;99.90;;;;;;5042947;28;20419;-58
2021/01/28 10:49:43;;;;;;;7.18;4.95;;;6.30;99.90;;;;;;5046423;28;20474;-56
2021/01/28 10:52:09;;;;;;;6.28;5.00;;;6.20;99.90;;;;;;5042564;28;20541;-58
2021/01/28 10:54:35;;;;;;;6.15;3.08;;;6.20;99.90;;;;;;5042653;28;20397;-58
2021/01/28 10:57:03;;;;;;;4.97;3.10;;;6.20;99.90;;;;;;5046489;28;20391;-58
2021/01/28 10:59:28;;;;;;;5.70;2.80;;;6.30;99.90;;;;;;5036141;28;20403;-58
2021/01/28 11:01:55;;;;;;;4.95;2.42;;;6.70;99.90;;;;;;5026191;28;20492;-59
2021/01/28 11:04:20;;;;;;;4.32;1.80;;;6.80;99.90;;;;;;5040255;28;20424;-58
2021/01/28 11:06:46;;;;;;;4.47;2.30;;;6.80;99.90;;;;;;5032689;28;20425;-58
2021/01/28 11:09:11;;;;;;;4.20;1.60;;;6.80;99.90;;;;;;5041079;28;20455;-58
2021/01/28 11:11:37;;;;;;;4.07;2.00;;;6.90;99.90;;;;;;5039892;28;20424;-60
2021/01/28 11:14:03;;;;;;;4.00;2.17;;;7.00;99.90;;;;;;5037632;28;20451;-58
2021/01/28 11:16:33;;;;;;;3.57;1.60;;;7.10;99.90;;;;;;5038156;28;20394;-58
2021/01/28 11:18:59;;;;;;;5.03;1.60;;;7.00;99.90;;;;;;5036547;28;20446;-59
2021/01/28 11:21:25;;;;;;;5.00;1.60;;;6.80;99.90;;;;;;5040602;28;20425;-59
2021/01/28 11:23:50;;;;;;;5.30;2.30;;;6.80;99.90;;;;;;5037335;28;20440;-59
2021/01/28 11:26:16;;;;;;;5.82;4.10;;;6.90;99.90;;;;;;5041450;28;20720;-58
2021/01/28 11:28:43;;;;;;;3.67;1.47;;;6.90;99.90;;;;;;5038522;28;20451;-58
2021/01/28 11:31:08;;;;;;;5.40;2.70;;;7.00;99.90;;;;;;5038028;28;20412;-58
2021/01/28 11:33:34;;;;;;;5.03;1.75;;;7.20;99.90;;;;;;5041882;28;20389;-58
2021/01/28 11:36:01;;;;;;;4.80;1.97;;;7.30;99.90;;;;;;5037397;28;21302;-58
2021/01/28 11:38:27;;;;;;;5.13;1.60;;;7.50;99.90;;;;;;5041683;28;20887;-58
2021/01/28 11:40:52;;;;;;;3.50;1.40;;;7.70;99.90;;;;;;5045464;28;20392;-59
2021/01/28 11:43:19;;;;;;;3.80;1.80;;;7.90;99.90;;;;;;5044529;28;20492;-58
2021/01/28 11:45:44;;;;;;;3.90;1.00;;;8.10;99.90;;;;;;5040821;28;20417;-57
2021/01/28 11:48:10;;;;;;;6.30;2.20;;;8.20;99.90;;;;;;5025180;28;20436;-58
2021/01/28 11:50:36;;;;;;;2.65;0.80;;;8.20;99.90;;;;;;5028041;28;20451;-57
2021/01/28 11:53:02;;;;;;;3.90;1.30;;;8.10;99.90;;;;;;5047064;28;20393;-58
2021/01/28 11:55:28;;;;;;;3.25;1.05;;;8.00;99.90;;;;;;5038886;28;20840;-60
2021/01/28 11:57:55;;;;;;;3.17;1.20;;;7.80;99.90;;;;;;5042322;28;20429;-58
2021/01/28 12:00:24;;;;;;;3.40;1.35;;;7.60;99.90;;;;;;5043434;28;20410;-59
2021/01/28 12:02:50;;;;;;;3.20;1.30;;;7.60;99.90;;;;;;5042589;28;20401;-59
2021/01/28 12:05:18;;;;;;;4.57;1.50;;;7.70;99.90;;;;;;5039873;28;20407;-59
2021/01/28 12:07:44;;;;;;;3.53;1.30;;;7.90;99.90;;;;;;5039096;28;20417;-58
2021/01/28 12:10:12;;;;;;;4.00;1.20;;;8.00;99.90;;;;;;5046844;28;20421;-58
2021/01/28 12:12:39;;;;;;;3.40;1.40;;;8.00;99.90;;;;;;5037770;28;20890;-62
2021/01/28 12:15:06;;;;;;;2.97;1.30;;;8.10;99.90;;;;;;5042707;28;20395;-59
2021/01/28 12:17:32;;;;;;;5.72;1.50;;;8.10;99.90;;;;;;5043889;28;20882;-58
2021/01/28 12:19:58;;;;;;;4.00;1.50;;;8.10;99.90;;;;;;5045323;28;20402;-57
2021/01/28 12:22:24;;;;;;;3.85;1.33;;;8.00;99.90;;;;;;5039846;28;20402;-57
2021/01/28 12:24:50;;;;;;;5.30;1.50;;;8.10;99.90;;;;;;5044028;28;21260;-58
2021/01/28 12:27:16;;;;;;;3.53;1.20;;;8.00;99.90;;;;;;5034736;28;20513;-57
2021/01/28 12:29:42;;;;;;;5.40;1.55;;;7.90;99.90;;;;;;5034438;28;20375;-58
2021/01/28 12:32:08;;;;;;;3.70;1.50;;;7.90;99.90;;;;;;5042125;28;20401;-58
2021/01/28 12:34:34;;;;;;;4.88;1.50;;;8.10;99.90;;;;;;5044325;28;20405;-60
2021/01/28 12:37:00;;;;;;;4.10;1.60;;;8.10;99.90;;;;;;5033014;28;20407;-59
2021/01/28 12:39:26;;;;;;;4.50;1.55;;;8.10;99.90;;;;;;5036340;28;20868;-59
2021/01/28 12:41:52;;;;;;;3.60;1.30;;;8.20;99.90;;;;;;5045866;28;20812;-57
2021/01/28 12:44:17;;;;;;;3.88;1.52;;;8.20;99.90;;;;;;5038115;28;20405;-58
2021/01/28 12:46:43;;;;;;;5.20;1.60;;;8.20;99.90;;;;;;5031532;28;21276;-60
2021/01/28 12:49:09;;;;;;;4.30;1.63;;;8.20;99.90;;;;;;5037600;28;20461;-60
2021/01/28 12:51:34;;;;;;;3.50;1.42;;;8.20;99.90;;;;;;5036152;28;20391;-58
2021/01/28 12:54:00;;;;;;;3.60;1.50;;;8.30;99.90;;;;;;5040185;28;20397;-59
2021/01/28 12:56:25;;;;;;;3.42;1.40;;;8.30;99.90;;;;;;5042163;28;21220;-58
2021/01/28 12:58:51;;;;;;;3.20;1.50;;;8.30;99.90;;;;;;5042415;28;20806;-59
2021/01/28 13:01:17;;;;;;;4.68;2.20;;;8.30;99.90;;;;;;5026671;28;20538;-58
2021/01/28 13:03:43;;;;;;;4.00;1.50;;;8.30;99.90;;;;;;5047500;28;20371;-59
2021/01/28 13:06:09;;;;;;;3.27;1.60;;;8.40;99.90;;;;;;5035262;28;20410;-58
2021/01/28 13:08:34;;;;;;;4.40;1.60;;;8.40;99.90;;;;;;5047169;28;20446;-59
2021/01/28 13:11:00;;;;;;;3.70;1.40;;;8.50;99.90;;;;;;5042804;28;20863;-58
2021/01/28 13:13:26;;;;;;;3.77;1.37;;;8.70;99.90;;;;;;5049939;28;20409;-59